Data for 10/18/2005

Time Sea-Level Adjusted Pressure Absolute Pressure Temperature Relative Humidity Dew Point   
(mb) (inHg) (mb) (inHg) (C) (F) (%) (C) (F)
00:05 1015 29.97 844 24.92 12.8 55 45 1.2 34.2
00:10 1015 29.97 844 24.92 12.5 54.5 45 0.9 33.6
00:15 1015 29.97 844 24.92 12.6 54.7 44 0.8 33.5
00:20 1015 29.97 844 24.92 12.5 54.5 46 1.4 34.5
00:25 1015 29.97 844 24.92 12.5 54.4 46 1.1 34
00:30 1015 29.97 844 24.92 12.7 54.9 43 0.4 32.8
00:35 1015 29.97 844 24.92 13.5 56.3 42 0.9 33.5
00:40 1015 29.97 844 24.92 13.7 56.7 41 0.7 33.3
00:45 1015 29.97 844 24.92 14.1 57.3 39 0.5 32.9
00:50 1015 29.97 844 24.92 14.3 57.8 39 0.8 33.4
00:55 1015 29.97 844 24.92 14.3 57.7 40 0.8 33.5
01:00 1015 29.97 844 24.92 14.4 57.9 40 1 33.9
01:05 1015 29.97 844 24.92 14.5 58.2 39 0.8 33.4
01:10 1015 29.97 844 24.92 14.7 58.4 39 1 33.7
01:15 1015 29.97 844 24.92 14.6 58.2 38 0.7 33.2
01:20 1015 29.97 844 24.92 14.8 58.6 38 0.6 33
01:25 1015 29.97 844 24.92 14.8 58.6 39 0.9 33.6
01:30 1015 29.97 844 24.92 14.5 58 40 1 33.8
01:35 1015 29.97 844 24.92 14.4 58 39 0.8 33.4
01:40 1015 29.97 844 24.92 14.8 58.6 38 0.8 33.4
01:45 1015 29.97 844 24.92 14.9 58.8 38 0.7 33.3
01:50 1015 29.97 844 24.92 14.9 58.9 38 1 33.7
01:55 1015 29.97 844 24.92 14.6 58.3 40 1.3 34.3
02:00 1015 29.97 844 24.92 14 57.3 42 1.4 34.5
02:05 1015 29.97 844 24.92 13.7 56.7 42 1 33.8
02:10 1015 29.97 844 24.92 14.1 57.3 40 0.9 33.6
02:15 1015 29.97 844 24.92 14.2 57.5 41 1.1 33.9
02:20 1015 29.97 844 24.92 14.1 57.3 41 1 33.8
02:25 1015 29.97 844 24.92 14.1 57.4 40 0.8 33.5
02:30 1015 29.97 844 24.92 14.1 57.3 41 0.9 33.7
02:35 1015 29.97 844 24.92 14 57.2 41 1.1 33.9
02:40 1015 29.97 844 24.92 13.8 56.8 42 1.1 33.9
02:45 1015 29.97 844 24.92 13.7 56.7 42 1 33.7
02:50 1015 29.97 844 24.92 13.6 56.5 42 1.2 34.1
02:55 1015 29.97 844 24.92 13.4 56.1 43 1.2 34.1
03:00 1015 29.97 844 24.92 13.3 56 43 1.1 34
03:05 1015 29.97 844 24.92 13.2 55.8 44 1.3 34.4
03:10 1015 29.97 844 24.92 13.1 55.6 45 1.5 34.7
03:15 1015 29.97 844 24.92 13.2 55.8 43 1.1 33.9
03:20 1015 29.97 844 24.92 13.2 55.8 43 0.9 33.7
03:25 1015 29.97 844 24.92 13.2 55.8 43 0.9 33.6
03:30 1015 29.97 844 24.92 13.2 55.8 43 0.9 33.6
03:35 1015 29.97 844 24.92 13.1 55.6 43 0.9 33.6
03:40 1015 29.97 844 24.92 13 55.5 43 0.9 33.6
03:45 1015 29.97 844 24.92 12.9 55.1 44 1 33.8
03:50 1015 29.97 844 24.92 12.8 55 43 0.7 33.3
03:55 1015 29.97 844 24.92 13 55.3 43 0.7 33.2
04:00 1015 29.97 844 24.92 13.1 55.6 42 0.6 33
04:05 1015 29.97 844 24.92 13.1 55.5 42 0.5 32.9
04:10 1015 29.97 844 24.92 13.1 55.6 42 0.4 32.8
04:15 1015 29.97 844 24.92 13.2 55.7 42 0.5 32.9
04:20 1015 29.97 844 24.92 13.1 55.5 42 0.5 32.9
04:25 1015 29.97 844 24.92 13 55.3 43 0.7 33.2
04:30 1015 29.97 844 24.92 12.9 55.2 44 0.9 33.7
04:35 1015 29.97 844 24.92 12.9 55.2 42 0.5 32.9
04:40 1015 29.97 844 24.92 13 55.4 44 1 33.7
04:45 1015 29.97 844 24.92 13 55.3 43 0.9 33.6
04:50 1015 29.97 844 24.92 13 55.4 44 0.9 33.7
04:55 1015 29.97 844 24.92 12.9 55.3 44 1 33.8
05:00 1015 29.97 844 24.92 12.8 55.1 44 1.1 33.9
05:05 1015 29.97 844 24.92 12.8 55 45 1.2 34.1
05:10 1015 29.97 844 24.92 12.5 54.5 45 1.1 33.9
05:15 1015 29.97 844 24.92 12.4 54.4 45 0.9 33.6
05:20 1015 29.97 844 24.92 12.4 54.4 46 1.1 34
05:25 1015 29.97 844 24.92 12.3 54.2 46 1 33.7
05:30 1015 29.97 844 24.92 12.2 53.9 46 0.9 33.5
05:35 1015 29.97 844 24.92 12.2 54 45 0.8 33.4
05:40 1015 29.97 844 24.92 12.4 54.4 45 0.9 33.6
05:45 1015 29.97 844 24.92 12.3 54.2 45 0.8 33.5
05:50 1015 29.97 844 24.92 12.4 54.3 44 0.6 33.1
05:55 1015 29.97 844 24.92 12.6 54.6 43 0.4 32.7
06:00 1015 29.97 844 24.92 12.4 54.4 44 0.6 33
06:05 1015 29.97 844 24.92 12.2 54 44 0.4 32.7
06:10 1015 29.97 844 24.92 12.4 54.3 44 0.4 32.8
06:15 1015 29.97 844 24.92 12.4 54.4 44 0.5 32.9
06:20 1015 29.97 844 24.92 12.4 54.3 44 0.5 33
06:25 1015 29.97 844 24.92 12.3 54.1 44 0.3 32.5
06:30 1015 29.97 845 24.95 12.3 54.2 43 0.2 32.4
06:35 1015 29.97 845 24.95 12.3 54.1 43 0.3 32.5
06:40 1016 30 845 24.95 12.2 53.9 44 0.3 32.6
06:45 1016 30 845 24.95 12.2 53.9 43 0.1 32.3
06:50 1016 30 845 24.95 12.3 54.1 43 0.2 32.4
06:55 1016 30 845 24.95 12.3 54.1 44 0.4 32.7
07:00 1016 30 845 24.95 12.3 54.2 43 0.2 32.4
07:05 1016 30 845 24.95 12.3 54.1 43 0.1 32.2
07:10 1016 30 845 24.95 12.3 54.1 44 0.3 32.5
07:15 1016 30 845 24.95 12 53.5 45 0.4 32.7
07:20 1016 30 845 24.95 11.8 53.2 45 0.3 32.5
07:25 1016 30 845 24.95 11.8 53.2 45 0.3 32.5
07:30 1016 30 845 24.95 11.8 53.3 45 0.4 32.8
07:35 1016 30 845 24.95 11.6 52.9 46 0.3 32.6
07:40 1016 30 845 24.95 11.7 53 46 0.4 32.8
07:45 1016 30 845 24.95 11.5 52.6 46 0.4 32.7
07:50 1016 30 845 24.95 11.4 52.5 48 0.7 33.3
07:55 1016 30 845 24.95 10.9 51.6 50 1 33.8
08:00 1016 30 846 24.98 10.4 50.7 51 0.9 33.6
08:05 1016 30 846 24.98 9.7 49.5 54 0.8 33.4
08:10 1016 30 846 24.98 9.5 49.2 54 0.8 33.5
08:15 1016 30 846 24.98 9.5 49.1 55 0.9 33.7
08:20 1016 30 846 24.98 9.6 49.2 54 0.8 33.5
08:25 1016 30 846 24.98 9.9 49.8 53 0.9 33.6
08:30 1017 30.03 846 24.98 10.4 50.8 51 0.9 33.6
08:35 1017 30.03 846 24.98 10.8 51.5 51 1.1 34.1
08:40 1017 30.03 846 24.98 10.9 51.6 51 1.3 34.4
08:45 1017 30.03 846 24.98 10.8 51.4 52 1.4 34.6
08:50 1017 30.03 846 24.98 10.8 51.4 52 1.4 34.6
08:55 1017 30.03 846 24.98 11.1 52.1 51 1.3 34.4
09:00 1017 30.03 846 24.98 12 53.6 48 1.5 34.7
09:05 1017 30.03 846 24.98 12.5 54.4 47 1.6 34.9
09:10 1017 30.03 846 24.98 13.1 55.5 44 1.2 34.2
09:15 1017 30.03 846 24.98 13.4 56.1 45 1.8 35.2
09:20 1017 30.03 846 24.98 13.6 56.4 44 1.5 34.8
09:25 1017 30.03 846 24.98 14.4 58 41 1.3 34.4
09:30 1017 30.03 847 25.01 14.4 57.8 41 1.3 34.3
09:35 1017 30.03 847 25.01 14.3 57.7 45 2.6 36.6
09:40 1017 30.03 847 25.01 13.6 56.5 49 3.1 37.5
09:45 1017 30.03 847 25.01 12.8 55 50 2.8 37
09:50 1017 30.03 847 25.01 12.5 54.6 50 2.5 36.5
09:55 1017 30.03 847 25.01 12.5 54.4 50 2.4 36.4
10:00 1017 30.03 846 24.98 12.4 54.4 51 2.5 36.5
10:05 1017 30.03 847 25.01 12.5 54.6 50 2.4 36.3
10:10 1017 30.03 847 25.01 12.9 55.2 49 2.5 36.4
10:15 1017 30.03 847 25.01 13.6 56.5 48 2.8 37
10:20 1018 30.06 847 25.01 14 57.3 47 2.9 37.2
10:25 1018 30.06 847 25.01 14.3 57.7 45 2.7 36.8
10:30 1018 30.06 847 25.01 15.1 59.1 42 2.3 36.2
10:35 1018 30.06 847 25.01 16.1 60.9 37 1.5 34.7
10:40 1018 30.06 847 25.01 16.5 61.7 38 2.1 35.8
10:45 1018 30.06 847 25.01 16.8 62.2 38 2.5 36.5
10:50 1018 30.06 847 25.01 16.7 62 37 2.2 36
10:55 1018 30.06 847 25.01 17 62.6 35 1.7 35
11:00 1018 30.06 847 25.01 17.4 63.2 33 1.2 34.2
11:05 1018 30.06 847 25.01 17.4 63.3 33 1.1 34
11:10 1018 30.06 847 25.01 17.1 62.7 33 0.9 33.7
11:15 1018 30.06 847 25.01 17.1 62.8 34 1.2 34.2
11:20 1018 30.06 847 25.01 18 64.3 33 1.4 34.6
11:25 1018 30.06 847 25.01 18.2 64.8 31 1.1 34.1
11:30 1018 30.06 847 25.01 17.6 63.7 32 1 33.8
11:35 1018 30.06 847 25.01 18.4 65.1 31 1.3 34.3
11:40 1018 30.06 847 25.01 19.1 66.4 29 0.8 33.5
11:45 1018 30.06 847 25.01 19.3 66.8 28 0.6 33.2
11:50 1018 30.06 847 25.01 19.7 67.5 28 0.9 33.7
11:55 1018 30.06 847 25.01 20.2 68.3 28 1 33.9
12:00 1018 30.06 847 25.01 19.9 67.9 29 1.4 34.5
12:05 1018 30.06 847 25.01 19.4 67 29 1.3 34.3
12:10 1017 30.03 847 25.01 19.3 66.8 30 1.3 34.3
12:15 1017 30.03 847 25.01 19.3 66.7 30 1.4 34.6
12:20 1017 30.03 847 25.01 19.4 66.9 29 1 33.9
12:25 1017 30.03 847 25.01 19.5 67 30 1.4 34.4
12:30 1017 30.03 847 25.01 19.3 66.8 29 1.2 34.1
12:35 1017 30.03 846 24.98 20.3 68.5 28 1.4 34.6
12:40 1017 30.03 846 24.98 19.4 67 31 2.1 35.8
12:45 1017 30.03 846 24.98 18 64.4 34 1.8 35.3
12:50 1017 30.03 846 24.98 17.1 62.7 36 1.9 35.4
12:55 1017 30.03 846 24.98 16.8 62.2 35 1.3 34.4
13:00 1017 30.03 846 24.98 17.2 63 35 1.6 34.9
13:05 1017 30.03 846 24.98 17.7 63.9 34 1.8 35.2
13:10 1017 30.03 846 24.98 18.3 64.9 32 1.3 34.4
13:15 1017 30.03 846 24.98 19.2 66.5 30 1.5 34.7
13:20 1017 30.03 846 24.98 19.2 66.5 31 2 35.5
13:25 1017 30.03 846 24.98 18.5 65.3 32 1.5 34.7
13:30 1017 30.03 846 24.98 18.7 65.6 30 1.1 34
13:35 1017 30.03 846 24.98 19 66.2 31 1.7 35.1
13:40 1017 30.03 846 24.98 19.3 66.8 30 1.4 34.4
13:45 1016 30 846 24.98 19.3 66.7 32 2.3 36.2
13:50 1016 30 846 24.98 18.5 65.3 33 2 35.6
13:55 1016 30 846 24.98 18.4 65.2 33 2 35.5
14:00 1016 30 846 24.98 19.2 66.6 31 1.9 35.4
14:05 1016 30 845 24.95 19.3 66.7 32 2.2 35.9
14:10 1016 30 845 24.95 19.1 66.3 31 1.8 35.2
14:15 1016 30 845 24.95 19.5 67.1 31 2 35.5
14:20 1016 30 845 24.95 19.5 67 31 2.1 35.8
14:25 1016 30 845 24.95 19.2 66.6 32 2.1 35.8
14:30 1016 30 845 24.95 18.9 65.9 31 1.7 35
14:35 1016 30 845 24.95 19.4 66.8 30 1.4 34.5
14:40 1016 30 845 24.95 20.4 68.7 29 1.8 35.2
14:45 1016 30 845 24.95 20.7 69.3 29 2.2 36
14:50 1016 30 845 24.95 20.4 68.7 29 2.1 35.7
14:55 1016 30 845 24.95 20.1 68.2 30 2.2 35.9
15:00 1016 30 845 24.95 19.4 67 30 1.7 35.1
15:05 1016 30 845 24.95 19.4 67 31 1.9 35.4
15:10 1016 30 845 24.95 19.3 66.8 30 1.6 34.8
15:15 1016 30 845 24.95 19.9 67.8 29 1.6 34.9
15:20 1016 30 845 24.95 20.6 69.2 29 2.1 35.7
15:25 1016 30 845 24.95 20.1 68.2 30 1.9 35.5
15:30 1016 30 845 24.95 20 68 29 1.6 34.9
15:35 1016 30 845 24.95 19.7 67.5 30 1.8 35.2
15:40 1016 30 845 24.95 19.8 67.7 29 1.5 34.7
15:45 1016 30 845 24.95 20.2 68.4 29 2 35.6
15:50 1016 30 845 24.95 19.5 67.1 33 3.2 37.7
15:55 1016 30 845 24.95 19.1 66.4 33 2.8 37
16:00 1016 30 845 24.95 19.1 66.4 34 3 37.3
16:05 1016 30 845 24.95 19.1 66.4 33 2.8 37
16:10 1015 29.97 845 24.95 18.5 65.3 35 3 37.4
16:15 1016 30 845 24.95 18.1 64.5 37 3.1 37.6
16:20 1015 29.97 845 24.95 17.9 64.3 37 3.3 38
16:25 1015 29.97 845 24.95 17.8 64.1 38 3.4 38.1
16:30 1015 29.97 845 24.95 17.9 64.2 38 3.5 38.3
16:35 1015 29.97 845 24.95 17.8 64 38 3.4 38.2
16:40 1015 29.97 845 24.95 17.3 63.2 40 3.7 38.6
16:45 1015 29.97 845 24.95 17.1 62.7 40 3.6 38.5
16:50 1015 29.97 845 24.95 17.2 62.9 41 3.8 38.9
16:55 1015 29.97 845 24.95 17.1 62.8 40 3.6 38.5
17:00 1015 29.97 845 24.95 16.8 62.2 41 3.7 38.6
17:05 1015 29.97 845 24.95 16.6 61.8 42 3.6 38.4
17:10 1015 29.97 845 24.95 16.4 61.5 42 3.4 38.1
17:15 1015 29.97 845 24.95 16.3 61.3 42 3.5 38.3
17:20 1015 29.97 845 24.95 16.2 61.2 42 3.5 38.2
17:25 1015 29.97 845 24.95 16.1 60.9 43 3.7 38.6
17:30 1015 29.97 845 24.95 15.7 60.2 44 3.5 38.3
17:35 1015 29.97 845 24.95 15.4 59.7 44 3.5 38.2
17:40 1015 29.97 844 24.92 15.2 59.3 45 3.5 38.2
17:45 1015 29.97 844 24.92 15 58.9 46 3.5 38.3
17:50 1015 29.97 844 24.92 14.7 58.5 47 3.5 38.4
17:55 1015 29.97 845 24.95 14.5 58.2 47 3.5 38.3
18:00 1015 29.97 844 24.92 14.4 57.9 47 3.4 38.2
18:05 1015 29.97 844 24.92 14.2 57.6 48 3.5 38.3
18:10 1015 29.97 844 24.92 14.1 57.3 49 3.6 38.5
18:15 1015 29.97 844 24.92 13.8 56.8 50 3.7 38.7
18:20 1015 29.97 844 24.92 13.6 56.4 51 3.6 38.5
18:25 1015 29.97 844 24.92 13.4 56.1 52 3.7 38.7
18:30 1015 29.97 844 24.92 13.2 55.7 53 3.8 38.8
18:35 1015 29.97 844 24.92 12.9 55.3 53 3.7 38.7
18:40 1015 29.97 844 24.92 12.9 55.1 53 3.6 38.5
18:45 1015 29.97 844 24.92 12.8 55 54 3.8 38.9
18:50 1015 29.97 844 24.92 12.5 54.6 55 3.8 38.9
18:55 1015 29.97 844 24.92 12.4 54.4 56 3.9 39.1
19:00 1015 29.97 844 24.92 12.3 54.2 57 4 39.2
19:05 1015 29.97 844 24.92 12.2 54 57 4 39.3
19:10 1015 29.97 844 24.92 12.2 53.9 57 4.1 39.3
19:15 1015 29.97 844 24.92 12 53.7 58 4 39.3
19:20 1015 29.97 844 24.92 11.9 53.4 58 4 39.3
19:25 1015 29.97 844 24.92 11.8 53.2 58 4 39.1
19:30 1015 29.97 845 24.95 11.8 53.2 58 3.8 38.9
19:35 1015 29.97 844 24.92 11.7 53.1 58 3.8 38.8
19:40 1015 29.97 844 24.92 11.7 53 58 3.8 38.8
19:45 1015 29.97 844 24.92 11.6 52.9 58 3.7 38.7
19:50 1015 29.97 844 24.92 11.6 52.9 58 3.8 38.8
19:55 1015 29.97 844 24.92 11.6 52.8 58 3.7 38.7
20:00 1015 29.97 844 24.92 11.6 52.8 58 3.7 38.7
20:05 1015 29.97 844 24.92 11.5 52.8 59 3.8 38.8
20:10 1015 29.97 844 24.92 11.5 52.6 59 3.8 38.8
20:15 1015 29.97 844 24.92 11.5 52.6 59 3.7 38.7
20:20 1015 29.97 844 24.92 11.4 52.6 59 3.7 38.7
20:25 1015 29.97 844 24.92 11.4 52.5 59 3.7 38.7
20:30 1015 29.97 844 24.92 11.4 52.5 59 3.8 38.8
20:35 1015 29.97 844 24.92 11.3 52.3 59 3.7 38.7
20:40 1015 29.97 844 24.92 11.2 52.2 60 3.7 38.7
20:45 1015 29.97 845 24.95 11.2 52.2 60 3.7 38.7
20:50 1015 29.97 844 24.92 11.1 52 60 3.7 38.7
20:55 1015 29.97 844 24.92 11 51.9 60 3.7 38.6
21:00 1015 29.97 844 24.92 11 51.7 60 3.6 38.5
21:05 1015 29.97 844 24.92 11 51.8 60 3.7 38.6
21:10 1015 29.97 844 24.92 10.9 51.7 60 3.6 38.5
21:15 1015 29.97 844 24.92 11 51.7 61 3.7 38.7
21:20 1015 29.97 845 24.95 10.9 51.7 61 3.8 38.8
21:25 1015 29.97 844 24.92 10.8 51.5 61 3.7 38.6
21:30 1015 29.97 845 24.95 10.8 51.4 61 3.7 38.6
21:35 1015 29.97 845 24.95 10.8 51.5 61 3.7 38.6
21:40 1015 29.97 845 24.95 10.7 51.2 62 3.7 38.6
21:45 1015 29.97 845 24.95 10.5 51 62 3.6 38.5
21:50 1015 29.97 845 24.95 10.4 50.8 63 3.6 38.5
21:55 1015 29.97 845 24.95 10.3 50.6 63 3.7 38.6
22:00 1016 30 845 24.95 10.3 50.5 63 3.7 38.6
22:05 1016 30 845 24.95 10.2 50.4 63 3.6 38.5
22:10 1016 30 845 24.95 10.1 50.2 64 3.6 38.6
22:15 1016 30 845 24.95 10 50.1 64 3.6 38.4
22:20 1016 30 845 24.95 10 50.1 64 3.6 38.5
22:25 1016 30 845 24.95 9.9 49.9 64 3.6 38.4
22:30 1016 30 845 24.95 9.9 49.8 65 3.6 38.4
22:35 1016 30 845 24.95 9.8 49.7 65 3.6 38.5
22:40 1016 30 845 24.95 9.8 49.6 65 3.6 38.5
22:45 1016 30 845 24.95 9.7 49.5 65 3.6 38.5
22:50 1016 30 845 24.95 9.7 49.4 66 3.6 38.5
22:55 1016 30 845 24.95 9.7 49.4 66 3.6 38.5
23:00 1016 30 845 24.95 9.6 49.2 66 3.6 38.5
23:05 1016 30 845 24.95 9.5 49 67 3.6 38.5
23:10 1016 30 845 24.95 9.5 49.1 67 3.7 38.6
23:15 1016 30 845 24.95 9.4 48.9 67 3.6 38.5
23:20 1016 30 845 24.95 9.3 48.8 67 3.5 38.2
23:25 1016 30 845 24.95 9.4 48.9 67 3.6 38.5
23:30 1016 30 845 24.95 9.2 48.6 68 3.6 38.4
23:35 1015 29.97 845 24.95 9.3 48.7 68 3.7 38.6
23:40 1015 29.97 845 24.95 9.2 48.5 68 3.6 38.6
23:45 1015 29.97 845 24.95 9.1 48.4 68 3.5 38.4
23:50 1015 29.97 845 24.95 9.1 48.5 68 3.6 38.5
23:55 1016 30 845 24.95 9 48.2 69 3.6 38.4
24:00 1016 30 845 24.95 8.9 48.1 69 3.6 38.4